sensor_id;sensor_type;location;lat;lon;timestamp;pressure;altitude;pressure_sealevel;temperature
60936;BMP280;46804;51.786;19.520;2022-07-23T00:01:24;98527.63;;;21.80
60936;BMP280;46804;51.786;19.520;2022-07-23T00:05:25;98519.94;;;21.81
60936;BMP280;46804;51.786;19.520;2022-07-23T00:09:25;98519.50;;;21.80
60936;BMP280;46804;51.786;19.520;2022-07-23T00:13:26;98527.00;;;21.74
60936;BMP280;46804;51.786;19.520;2022-07-23T00:17:27;98526.31;;;21.77
60936;BMP280;46804;51.786;19.520;2022-07-23T00:21:28;98527.94;;;21.78
60936;BMP280;46804;51.786;19.520;2022-07-23T00:25:28;98530.34;;;21.71
60936;BMP280;46804;51.786;19.520;2022-07-23T00:29:29;98535.75;;;21.71
60936;BMP280;46804;51.786;19.520;2022-07-23T00:33:29;98538.50;;;21.54
60936;BMP280;46804;51.786;19.520;2022-07-23T00:37:31;98540.59;;;21.49
60936;BMP280;46804;51.786;19.520;2022-07-23T00:41:31;98540.75;;;21.27
60936;BMP280;46804;51.786;19.520;2022-07-23T00:45:32;98540.75;;;21.19
60936;BMP280;46804;51.786;19.520;2022-07-23T00:49:32;98535.34;;;21.19
60936;BMP280;46804;51.786;19.520;2022-07-23T00:53:33;98531.81;;;21.18
60936;BMP280;46804;51.786;19.520;2022-07-23T00:57:35;98536.59;;;21.21
60936;BMP280;46804;51.786;19.520;2022-07-23T01:01:36;98537.25;;;21.10
60936;BMP280;46804;51.786;19.520;2022-07-23T01:05:37;98527.88;;;21.08
60936;BMP280;46804;51.786;19.520;2022-07-23T01:09:38;98524.53;;;21.02
60936;BMP280;46804;51.786;19.520;2022-07-23T01:13:45;98524.50;;;20.94
60936;BMP280;46804;51.786;19.520;2022-07-23T01:17:45;98520.69;;;21.03
60936;BMP280;46804;51.786;19.520;2022-07-23T01:21:48;98526.56;;;21.05
60936;BMP280;46804;51.786;19.520;2022-07-23T01:25:52;98521.19;;;20.97
60936;BMP280;46804;51.786;19.520;2022-07-23T01:29:54;98524.69;;;20.89
60936;BMP280;46804;51.786;19.520;2022-07-23T01:33:55;98514.16;;;20.87
60936;BMP280;46804;51.786;19.520;2022-07-23T01:37:56;98514.03;;;20.76
60936;BMP280;46804;51.786;19.520;2022-07-23T01:41:56;98522.59;;;20.61
60936;BMP280;46804;51.786;19.520;2022-07-23T01:45:57;98526.69;;;20.58
60936;BMP280;46804;51.786;19.520;2022-07-23T01:49:57;98517.28;;;20.47
60936;BMP280;46804;51.786;19.520;2022-07-23T01:53:58;98513.78;;;20.39
60936;BMP280;46804;51.786;19.520;2022-07-23T01:57:58;98503.25;;;20.37
60936;BMP280;46804;51.786;19.520;2022-07-23T02:01:59;98490.22;;;20.31
60936;BMP280;46804;51.786;19.520;2022-07-23T02:06:00;98502.75;;;20.27
60936;BMP280;46804;51.786;19.520;2022-07-23T02:10:00;98501.81;;;20.23
60936;BMP280;46804;51.786;19.520;2022-07-23T02:14:01;98495.13;;;20.29
60936;BMP280;46804;51.786;19.520;2022-07-23T02:18:01;98487.66;;;20.26
60936;BMP280;46804;51.786;19.520;2022-07-23T02:22:02;98496.97;;;20.03
60936;BMP280;46804;51.786;19.520;2022-07-23T02:26:02;98509.78;;;19.89
60936;BMP280;46804;51.786;19.520;2022-07-23T02:30:03;98493.13;;;19.96
60936;BMP280;46804;51.786;19.520;2022-07-23T02:34:04;98497.72;;;19.87
60936;BMP280;46804;51.786;19.520;2022-07-23T02:38:05;98485.78;;;19.88
60936;BMP280;46804;51.786;19.520;2022-07-23T02:42:05;98478.84;;;19.95
60936;BMP280;46804;51.786;19.520;2022-07-23T02:46:06;98475.47;;;19.81
60936;BMP280;46804;51.786;19.520;2022-07-23T02:50:07;98457.72;;;19.97
60936;BMP280;46804;51.786;19.520;2022-07-23T02:54:08;98483.88;;;19.80
60936;BMP280;46804;51.786;19.520;2022-07-23T02:58:08;98472.28;;;19.79
60936;BMP280;46804;51.786;19.520;2022-07-23T03:02:09;98478.63;;;19.83
60936;BMP280;46804;51.786;19.520;2022-07-23T03:06:09;98486.88;;;19.78
60936;BMP280;46804;51.786;19.520;2022-07-23T03:10:10;98449.31;;;20.07
60936;BMP280;46804;51.786;19.520;2022-07-23T03:14:10;98465.03;;;20.05
60936;BMP280;46804;51.786;19.520;2022-07-23T03:18:13;98461.50;;;19.96
60936;BMP280;46804;51.786;19.520;2022-07-23T03:22:14;98444.25;;;20.22
60936;BMP280;46804;51.786;19.520;2022-07-23T03:26:14;98465.03;;;20.05
60936;BMP280;46804;51.786;19.520;2022-07-23T03:30:15;98441.91;;;20.21
60936;BMP280;46804;51.786;19.520;2022-07-23T03:34:15;98442.84;;;20.25
60936;BMP280;46804;51.786;19.520;2022-07-23T03:38:16;98444.25;;;20.22
60936;BMP280;46804;51.786;19.520;2022-07-23T03:42:16;98439.06;;;20.42
60936;BMP280;46804;51.786;19.520;2022-07-23T03:46:17;98454.16;;;20.43
60936;BMP280;46804;51.786;19.520;2022-07-23T03:50:17;98447.00;;;20.47
60936;BMP280;46804;51.786;19.520;2022-07-23T03:54:18;98450.69;;;20.51
60936;BMP280;46804;51.786;19.520;2022-07-23T03:58:18;98452.75;;;20.54
60936;BMP280;46804;51.786;19.520;2022-07-23T04:02:19;98445.47;;;20.63
60936;BMP280;46804;51.786;19.520;2022-07-23T04:06:20;98427.50;;;20.76
60936;BMP280;46804;51.786;19.520;2022-07-23T04:10:20;98420.97;;;20.85
60936;BMP280;46804;51.786;19.520;2022-07-23T04:14:21;98399.13;;;21.07
60936;BMP280;46804;51.786;19.520;2022-07-23T04:18:21;98435.44;;;21.06
60936;BMP280;46804;51.786;19.520;2022-07-23T04:22:24;98402.59;;;21.15
60936;BMP280;46804;51.786;19.520;2022-07-23T04:26:24;98375.19;;;21.34
60936;BMP280;46804;51.786;19.520;2022-07-23T04:30:25;98389.97;;;21.36
60936;BMP280;46804;51.786;19.520;2022-07-23T04:34:25;98382.16;;;21.51
60936;BMP280;46804;51.786;19.520;2022-07-23T04:38:26;98361.84;;;21.66
60936;BMP280;46804;51.786;19.520;2022-07-23T04:42:27;98359.88;;;21.75
60936;BMP280;46804;51.786;19.520;2022-07-23T04:46:28;98329.84;;;21.88
60936;BMP280;46804;51.786;19.520;2022-07-23T04:50:29;98323.22;;;22.06
60936;BMP280;46804;51.786;19.520;2022-07-23T04:54:29;98366.84;;;22.13
60936;BMP280;46804;51.786;19.520;2022-07-23T04:58:30;98371.09;;;22.22
60936;BMP280;46804;51.786;19.520;2022-07-23T05:02:32;98313.81;;;22.44
60936;BMP280;46804;51.786;19.520;2022-07-23T05:06:32;98324.91;;;22.50
60936;BMP280;46804;51.786;19.520;2022-07-23T05:10:33;98288.38;;;22.68
60936;BMP280;46804;51.786;19.520;2022-07-23T05:14:33;98284.19;;;22.91
60936;BMP280;46804;51.786;19.520;2022-07-23T05:18:34;98261.59;;;23.11
60936;BMP280;46804;51.786;19.520;2022-07-23T05:22:34;98309.19;;;23.20
60936;BMP280;46804;51.786;19.520;2022-07-23T05:26:35;98273.72;;;23.37
60936;BMP280;46804;51.786;19.520;2022-07-23T05:30:35;98237.41;;;23.65
60936;BMP280;46804;51.786;19.520;2022-07-23T05:34:36;98269.16;;;23.76
60936;BMP280;46804;51.786;19.520;2022-07-23T05:38:37;98261.09;;;23.91
60936;BMP280;46804;51.786;19.520;2022-07-23T05:42:38;98258.56;;;24.10
60936;BMP280;46804;51.786;19.520;2022-07-23T05:46:39;98248.06;;;24.36
60936;BMP280;46804;51.786;19.520;2022-07-23T05:50:40;98295.41;;;24.62
60936;BMP280;46804;51.786;19.520;2022-07-23T05:54:40;98318.47;;;24.80
60936;BMP280;46804;51.786;19.520;2022-07-23T05:58:41;98306.66;;;25.03
60936;BMP280;46804;51.786;19.520;2022-07-23T06:02:42;98300.72;;;25.28
60936;BMP280;46804;51.786;19.520;2022-07-23T06:06:43;98295.72;;;25.60
60936;BMP280;46804;51.786;19.520;2022-07-23T06:10:43;98291.28;;;25.87
60936;BMP280;46804;51.786;19.520;2022-07-23T06:14:44;98286.63;;;26.21
60936;BMP280;46804;51.786;19.520;2022-07-23T06:18:44;98310.44;;;26.62
60936;BMP280;46804;51.786;19.520;2022-07-23T06:22:45;98312.06;;;27.03
60936;BMP280;46804;51.786;19.520;2022-07-23T06:26:45;98280.84;;;27.45
60936;BMP280;46804;51.786;19.520;2022-07-23T06:30:46;98274.53;;;27.93
60936;BMP280;46804;51.786;19.520;2022-07-23T06:34:47;98282.59;;;27.57
60936;BMP280;46804;51.786;19.520;2022-07-23T06:38:47;98309.06;;;28.01
60936;BMP280;46804;51.786;19.520;2022-07-23T06:42:48;98293.50;;;28.63
60936;BMP280;46804;51.786;19.520;2022-07-23T06:46:48;98281.38;;;29.00
60936;BMP280;46804;51.786;19.520;2022-07-23T06:50:49;98264.84;;;29.72
60936;BMP280;46804;51.786;19.520;2022-07-23T06:54:52;98273.00;;;30.21
60936;BMP280;46804;51.786;19.520;2022-07-23T06:58:53;98283.22;;;30.31
60936;BMP280;46804;51.786;19.520;2022-07-23T07:02:54;98288.72;;;30.31
60936;BMP280;46804;51.786;19.520;2022-07-23T07:06:54;98288.88;;;30.69
60936;BMP280;46804;51.786;19.520;2022-07-23T07:10:55;98287.06;;;31.21
60936;BMP280;46804;51.786;19.520;2022-07-23T07:14:56;98276.41;;;30.92
60936;BMP280;46804;51.786;19.520;2022-07-23T07:18:57;98308.16;;;30.86
60936;BMP280;46804;51.786;19.520;2022-07-23T07:22:58;98300.41;;;31.19
60936;BMP280;46804;51.786;19.520;2022-07-23T07:26:58;98282.31;;;30.98
60936;BMP280;46804;51.786;19.520;2022-07-23T07:30:59;98278.06;;;31.90
60936;BMP280;46804;51.786;19.520;2022-07-23T07:34:59;98273.13;;;32.56
60936;BMP280;46804;51.786;19.520;2022-07-23T07:39:00;98272.66;;;33.42
60936;BMP280;46804;51.786;19.520;2022-07-23T07:43:00;98272.78;;;34.15
60936;BMP280;46804;51.786;19.520;2022-07-23T07:47:03;98288.06;;;34.23
60936;BMP280;46804;51.786;19.520;2022-07-23T07:51:05;98301.97;;;34.13
60936;BMP280;46804;51.786;19.520;2022-07-23T07:55:08;98286.31;;;35.02
60936;BMP280;46804;51.786;19.520;2022-07-23T07:59:08;98302.75;;;34.50
60936;BMP280;46804;51.786;19.520;2022-07-23T08:03:10;98301.03;;;33.90
60936;BMP280;46804;51.786;19.520;2022-07-23T08:07:11;98298.25;;;35.25
60936;BMP280;46804;51.786;19.520;2022-07-23T08:11:12;98294.94;;;36.05
60936;BMP280;46804;51.786;19.520;2022-07-23T08:15:15;98288.56;;;34.51
60936;BMP280;46804;51.786;19.520;2022-07-23T08:19:16;98298.72;;;34.21
60936;BMP280;46804;51.786;19.520;2022-07-23T08:23:17;98279.72;;;34.30
60936;BMP280;46804;51.786;19.520;2022-07-23T08:27:19;98271.22;;;36.04
60936;BMP280;46804;51.786;19.520;2022-07-23T08:31:20;98251.00;;;37.03
60936;BMP280;46804;51.786;19.520;2022-07-23T08:35:29;98251.94;;;37.12
60936;BMP280;46804;51.786;19.520;2022-07-23T08:39:30;98257.16;;;36.56
60936;BMP280;46804;51.786;19.520;2022-07-23T08:43:32;98242.25;;;37.36
60936;BMP280;46804;51.786;19.520;2022-07-23T08:47:33;98247.34;;;37.06
60936;BMP280;46804;51.786;19.520;2022-07-23T08:51:34;98273.00;;;34.64
60936;BMP280;46804;51.786;19.520;2022-07-23T08:55:34;98258.47;;;34.90
60936;BMP280;46804;51.786;19.520;2022-07-23T08:59:35;98253.56;;;35.75
60936;BMP280;46804;51.786;19.520;2022-07-23T09:03:36;98244.84;;;36.19
60936;BMP280;46804;51.786;19.520;2022-07-23T09:12:14;98232.41;;;35.62
60936;BMP280;46804;51.786;19.520;2022-07-23T09:16:17;98234.75;;;35.41
60936;BMP280;46804;51.786;19.520;2022-07-23T09:20:19;98229.56;;;35.69
60936;BMP280;46804;51.786;19.520;2022-07-23T09:24:19;98221.97;;;36.72
60936;BMP280;46804;51.786;19.520;2022-07-23T09:28:20;98195.44;;;37.06
60936;BMP280;46804;51.786;19.520;2022-07-23T09:32:21;98209.94;;;36.79
60936;BMP280;46804;51.786;19.520;2022-07-23T09:36:29;98197.72;;;37.87
60936;BMP280;46804;51.786;19.520;2022-07-23T09:40:30;98190.25;;;38.00
60936;BMP280;46804;51.786;19.520;2022-07-23T09:44:40;98203.25;;;37.27
60936;BMP280;46804;51.786;19.520;2022-07-23T09:48:41;98189.66;;;38.20
60936;BMP280;46804;51.786;19.520;2022-07-23T09:52:49;98166.97;;;39.36
60936;BMP280;46804;51.786;19.520;2022-07-23T09:56:51;98168.38;;;37.58
60936;BMP280;46804;51.786;19.520;2022-07-23T10:00:52;98180.72;;;38.41
60936;BMP280;46804;51.786;19.520;2022-07-23T10:04:54;98177.16;;;38.81
60936;BMP280;46804;51.786;19.520;2022-07-23T10:08:59;98140.41;;;40.53
60936;BMP280;46804;51.786;19.520;2022-07-23T10:13:00;98164.84;;;41.10
60936;BMP280;46804;51.786;19.520;2022-07-23T10:17:21;98151.50;;;40.75
60936;BMP280;46804;51.786;19.520;2022-07-23T10:21:27;98144.22;;;41.82
60936;BMP280;46804;51.786;19.520;2022-07-23T10:25:46;98161.50;;;40.33
60936;BMP280;46804;51.786;19.520;2022-07-23T10:34:10;98157.38;;;39.62
60936;BMP280;46804;51.786;19.520;2022-07-23T10:38:21;98145.63;;;39.67
60936;BMP280;46804;51.786;19.520;2022-07-23T10:42:33;98159.34;;;38.78
60936;BMP280;46804;51.786;19.520;2022-07-23T10:46:34;98161.78;;;38.77
60936;BMP280;46804;51.786;19.520;2022-07-23T10:50:35;98174.13;;;38.76
60936;BMP280;46804;51.786;19.520;2022-07-23T10:54:36;98168.19;;;38.49
60936;BMP280;46804;51.786;19.520;2022-07-23T10:58:47;98140.41;;;39.23
60936;BMP280;46804;51.786;19.520;2022-07-23T11:02:50;98125.81;;;39.07
60936;BMP280;46804;51.786;19.520;2022-07-23T11:15:13;98124.69;;;39.29
60936;BMP280;46804;51.786;19.520;2022-07-23T11:19:14;98121.16;;;39.04
60936;BMP280;46804;51.786;19.520;2022-07-23T11:23:15;98117.16;;;39.17
60936;BMP280;46804;51.786;19.520;2022-07-23T11:27:43;98100.81;;;39.74
60936;BMP280;46804;51.786;19.520;2022-07-23T11:32:00;98082.88;;;40.17
60936;BMP280;46804;51.786;19.520;2022-07-23T11:36:03;98100.69;;;40.41
60936;BMP280;46804;51.786;19.520;2022-07-23T11:40:16;98095.88;;;39.11
60936;BMP280;46804;51.786;19.520;2022-07-23T11:44:29;98092.25;;;38.89
60936;BMP280;46804;51.786;19.520;2022-07-23T11:48:30;98067.13;;;38.80
60936;BMP280;46804;51.786;19.520;2022-07-23T11:52:32;98064.56;;;39.31
60936;BMP280;46804;51.786;19.520;2022-07-23T11:56:32;98057.03;;;39.95
60936;BMP280;46804;51.786;19.520;2022-07-23T12:00:33;98046.72;;;39.41
60936;BMP280;46804;51.786;19.520;2022-07-23T12:04:47;98024.22;;;39.69
60936;BMP280;46804;51.786;19.520;2022-07-23T12:08:48;98025.06;;;38.90
60936;BMP280;46804;51.786;19.520;2022-07-23T12:12:56;98026.31;;;39.11
60936;BMP280;46804;51.786;19.520;2022-07-23T12:17:10;98019.66;;;38.75
60936;BMP280;46804;51.786;19.520;2022-07-23T12:21:11;98028.00;;;37.72
60936;BMP280;46804;51.786;19.520;2022-07-23T12:25:18;98032.84;;;38.21
60936;BMP280;46804;51.786;19.520;2022-07-23T12:29:22;98031.81;;;37.06
60936;BMP280;46804;51.786;19.520;2022-07-23T12:33:34;98035.53;;;36.84
60936;BMP280;46804;51.786;19.520;2022-07-23T12:37:39;98039.25;;;36.31
60936;BMP280;46804;51.786;19.520;2022-07-23T12:41:53;98042.91;;;36.59
60936;BMP280;46804;51.786;19.520;2022-07-23T12:46:03;98058.78;;;36.74
60936;BMP280;46804;51.786;19.520;2022-07-23T12:50:05;98097.25;;;37.04
60936;BMP280;46804;51.786;19.520;2022-07-23T12:54:07;98177.50;;;36.41
60936;BMP280;46804;51.786;19.520;2022-07-23T12:58:18;98175.22;;;34.84
60936;BMP280;46804;51.786;19.520;2022-07-23T13:02:19;98204.56;;;31.73
60936;BMP280;46804;51.786;19.520;2022-07-23T13:06:19;98311.22;;;29.47
60936;BMP280;46804;51.786;19.520;2022-07-23T13:10:20;98377.78;;;28.79
60936;BMP280;46804;51.786;19.520;2022-07-23T13:14:21;98394.94;;;28.22
60936;BMP280;46804;51.786;19.520;2022-07-23T13:18:22;98357.03;;;27.50
60936;BMP280;46804;51.786;19.520;2022-07-23T13:22:23;98356.47;;;27.00
60936;BMP280;46804;51.786;19.520;2022-07-23T13:26:24;98402.50;;;25.66
60936;BMP280;46804;51.786;19.520;2022-07-23T13:30:25;98414.56;;;25.53
60936;BMP280;46804;51.786;19.520;2022-07-23T13:34:26;98440.88;;;25.19
60936;BMP280;46804;51.786;19.520;2022-07-23T13:38:26;98467.34;;;24.67
60936;BMP280;46804;51.786;19.520;2022-07-23T13:42:27;98475.34;;;24.37
60936;BMP280;46804;51.786;19.520;2022-07-23T13:46:28;98485.16;;;23.94
60936;BMP280;46804;51.786;19.520;2022-07-23T13:50:28;98476.69;;;23.95
60936;BMP280;46804;51.786;19.520;2022-07-23T13:54:29;98475.16;;;23.42
60936;BMP280;46804;51.786;19.520;2022-07-23T13:58:30;98477.66;;;23.35
60936;BMP280;46804;51.786;19.520;2022-07-23T14:02:31;98458.41;;;23.40
60936;BMP280;46804;51.786;19.520;2022-07-23T14:06:31;98458.41;;;23.28
60936;BMP280;46804;51.786;19.520;2022-07-23T14:10:32;98440.56;;;23.39
60936;BMP280;46804;51.786;19.520;2022-07-23T14:14:33;98437.84;;;23.51
60936;BMP280;46804;51.786;19.520;2022-07-23T14:18:34;98406.91;;;23.64
60936;BMP280;46804;51.786;19.520;2022-07-23T14:22:36;98446.59;;;23.13
60936;BMP280;46804;51.786;19.520;2022-07-23T14:26:37;98466.59;;;23.08
60936;BMP280;46804;51.786;19.520;2022-07-23T14:30:37;98436.06;;;23.11
60936;BMP280;46804;51.786;19.520;2022-07-23T14:34:38;98432.19;;;23.00
60936;BMP280;46804;51.786;19.520;2022-07-23T14:38:38;98432.19;;;23.00
60936;BMP280;46804;51.786;19.520;2022-07-23T14:42:39;98380.53;;;23.09
60936;BMP280;46804;51.786;19.520;2022-07-23T14:46:40;98406.13;;;22.87
60936;BMP280;46804;51.786;19.520;2022-07-23T14:50:41;98418.22;;;22.70
60936;BMP280;46804;51.786;19.520;2022-07-23T14:54:41;98410.56;;;22.51
60936;BMP280;46804;51.786;19.520;2022-07-23T14:58:42;98374.47;;;22.39
60936;BMP280;46804;51.786;19.520;2022-07-23T15:02:43;98375.31;;;22.31
60936;BMP280;46804;51.786;19.520;2022-07-23T15:06:44;98349.94;;;22.15
60936;BMP280;46804;51.786;19.520;2022-07-23T15:10:45;98345.25;;;21.96
60936;BMP280;46804;51.786;19.520;2022-07-23T15:14:45;98335.94;;;22.05
60936;BMP280;46804;51.786;19.520;2022-07-23T15:18:46;98352.88;;;22.02
60936;BMP280;46804;51.786;19.520;2022-07-23T15:22:46;98348.28;;;21.94
60936;BMP280;46804;51.786;19.520;2022-07-23T15:26:48;98343.25;;;22.33
60936;BMP280;46804;51.786;19.520;2022-07-23T15:30:50;98313.78;;;22.64
60936;BMP280;46804;51.786;19.520;2022-07-23T15:34:53;98278.41;;;22.92
60936;BMP280;46804;51.786;19.520;2022-07-23T15:38:54;98272.47;;;22.79
60936;BMP280;46804;51.786;19.520;2022-07-23T15:42:58;98273.72;;;22.81
60936;BMP280;46804;51.786;19.520;2022-07-23T15:46:59;98308.34;;;22.84
60936;BMP280;46804;51.786;19.520;2022-07-23T15:50:59;98303.88;;;23.00
60936;BMP280;46804;51.786;19.520;2022-07-23T15:55:02;98302.44;;;22.82
60936;BMP280;46804;51.786;19.520;2022-07-23T15:59:03;98310.66;;;22.74
60936;BMP280;46804;51.786;19.520;2022-07-23T16:03:04;98262.19;;;22.72
60936;BMP280;46804;51.786;19.520;2022-07-23T16:07:05;98291.75;;;22.65
60936;BMP280;46804;51.786;19.520;2022-07-23T16:11:05;98310.03;;;22.56
60936;BMP280;46804;51.786;19.520;2022-07-23T16:15:07;98272.59;;;22.82
60936;BMP280;46804;51.786;19.520;2022-07-23T16:19:09;98280.34;;;22.60
60936;BMP280;46804;51.786;19.520;2022-07-23T16:23:09;98299.81;;;22.74
60936;BMP280;46804;51.786;19.520;2022-07-23T16:27:10;98277.44;;;22.77
60936;BMP280;46804;51.786;19.520;2022-07-23T16:31:11;98257.97;;;22.95
60936;BMP280;46804;51.786;19.520;2022-07-23T16:35:12;98303.03;;;22.87
60936;BMP280;46804;51.786;19.520;2022-07-23T16:39:13;98282.63;;;22.70
60936;BMP280;46804;51.786;19.520;2022-07-23T16:43:14;98304.81;;;22.83
60936;BMP280;46804;51.786;19.520;2022-07-23T16:47:15;98281.00;;;22.89
60936;BMP280;46804;51.786;19.520;2022-07-23T16:51:15;98286.91;;;22.91
60936;BMP280;46804;51.786;19.520;2022-07-23T16:55:16;98263.56;;;22.78
60936;BMP280;46804;51.786;19.520;2022-07-23T16:59:17;98260.22;;;22.93
60936;BMP280;46804;51.786;19.520;2022-07-23T17:03:17;98251.84;;;22.86
60936;BMP280;46804;51.786;19.520;2022-07-23T17:07:18;98276.09;;;22.83
60936;BMP280;46804;51.786;19.520;2022-07-23T17:11:19;98261.75;;;22.82
60936;BMP280;46804;51.786;19.520;2022-07-23T17:15:20;98294.00;;;22.63
60936;BMP280;46804;51.786;19.520;2022-07-23T17:19:21;98290.91;;;22.73
60936;BMP280;46804;51.786;19.520;2022-07-23T17:23:21;98302.28;;;22.67
60936;BMP280;46804;51.786;19.520;2022-07-23T17:27:22;98307.22;;;22.85
60936;BMP280;46804;51.786;19.520;2022-07-23T17:31:23;98304.75;;;22.92
60936;BMP280;46804;51.786;19.520;2022-07-23T17:35:24;98334.75;;;22.75
60936;BMP280;46804;51.786;19.520;2022-07-23T17:39:24;98336.19;;;22.93
60936;BMP280;46804;51.786;19.520;2022-07-23T17:43:25;98326.59;;;22.95
60936;BMP280;46804;51.786;19.520;2022-07-23T17:47:26;98328.97;;;22.97
60936;BMP280;46804;51.786;19.520;2022-07-23T17:51:26;98326.03;;;23.14
60936;BMP280;46804;51.786;19.520;2022-07-23T17:55:27;98346.38;;;23.08
60936;BMP280;46804;51.786;19.520;2022-07-23T17:59:28;98355.53;;;23.03
60936;BMP280;46804;51.786;19.520;2022-07-23T18:03:29;98368.31;;;23.03
60936;BMP280;46804;51.786;19.520;2022-07-23T18:07:30;98372.69;;;22.95
60936;BMP280;46804;51.786;19.520;2022-07-23T18:11:31;98357.59;;;23.06
60936;BMP280;46804;51.786;19.520;2022-07-23T18:15:33;98349.53;;;23.10
60936;BMP280;46804;51.786;19.520;2022-07-23T18:19:34;98357.34;;;22.79
60936;BMP280;46804;51.786;19.520;2022-07-23T18:23:34;98348.63;;;22.74
60936;BMP280;46804;51.786;19.520;2022-07-23T18:27:36;98357.94;;;22.12
60936;BMP280;46804;51.786;19.520;2022-07-23T18:31:37;98357.81;;;22.00
60936;BMP280;46804;51.786;19.520;2022-07-23T18:35:38;98365.88;;;22.17
60936;BMP280;46804;51.786;19.520;2022-07-23T18:39:38;98362.44;;;22.28
60936;BMP280;46804;51.786;19.520;2022-07-23T18:43:39;98379.94;;;22.31
60936;BMP280;46804;51.786;19.520;2022-07-23T18:47:40;98402.03;;;22.21
60936;BMP280;46804;51.786;19.520;2022-07-23T18:51:41;98401.72;;;22.14
60936;BMP280;46804;51.786;19.520;2022-07-23T18:55:42;98405.72;;;22.16
60936;BMP280;46804;51.786;19.520;2022-07-23T18:59:43;98416.72;;;22.12
60936;BMP280;46804;51.786;19.520;2022-07-23T19:03:44;98420.34;;;21.87
60936;BMP280;46804;51.786;19.520;2022-07-23T19:07:46;98421.19;;;21.79
60936;BMP280;46804;51.786;19.520;2022-07-23T19:11:47;98424.50;;;21.56
60936;BMP280;46804;51.786;19.520;2022-07-23T19:15:48;98431.03;;;21.46
60936;BMP280;46804;51.786;19.520;2022-07-23T19:19:49;98420.25;;;21.38
60936;BMP280;46804;51.786;19.520;2022-07-23T19:23:50;98424.22;;;21.32
60936;BMP280;46804;51.786;19.520;2022-07-23T19:27:50;98430.88;;;21.35
60936;BMP280;46804;51.786;19.520;2022-07-23T19:31:51;98440.31;;;21.37
60936;BMP280;46804;51.786;19.520;2022-07-23T19:35:51;98429.63;;;21.41
60936;BMP280;46804;51.786;19.520;2022-07-23T19:39:52;98433.91;;;21.50
60936;BMP280;46804;51.786;19.520;2022-07-23T19:43:52;98439.63;;;21.48
60936;BMP280;46804;51.786;19.520;2022-07-23T19:47:53;98453.66;;;21.42
60936;BMP280;46804;51.786;19.520;2022-07-23T19:51:53;98458.28;;;21.42
60936;BMP280;46804;51.786;19.520;2022-07-23T19:55:54;98457.66;;;21.36
60936;BMP280;46804;51.786;19.520;2022-07-23T19:59:55;98464.16;;;21.35
60936;BMP280;46804;51.786;19.520;2022-07-23T20:03:55;98466.25;;;21.38
60936;BMP280;46804;51.786;19.520;2022-07-23T20:07:56;98470.88;;;21.38
60936;BMP280;46804;51.786;19.520;2022-07-23T20:11:57;98462.72;;;21.46
60936;BMP280;46804;51.786;19.520;2022-07-23T20:15:57;98468.63;;;21.40
60936;BMP280;46804;51.786;19.520;2022-07-23T20:19:58;98478.50;;;21.27
60936;BMP280;46804;51.786;19.520;2022-07-23T20:23:59;98484.59;;;21.08
60936;BMP280;46804;51.786;19.520;2022-07-23T20:28:00;98483.16;;;21.02
60936;BMP280;46804;51.786;19.520;2022-07-23T20:32:02;98472.47;;;21.05
60936;BMP280;46804;51.786;19.520;2022-07-23T20:36:03;98464.53;;;21.09
60936;BMP280;46804;51.786;19.520;2022-07-23T20:40:04;98470.56;;;21.14
60936;BMP280;46804;51.786;19.520;2022-07-23T20:44:05;98473.44;;;21.17
60936;BMP280;46804;51.786;19.520;2022-07-23T20:48:06;98464.34;;;21.22
60936;BMP280;46804;51.786;19.520;2022-07-23T20:52:06;98482.19;;;21.23
60936;BMP280;46804;51.786;19.520;2022-07-23T20:56:07;98477.88;;;21.30
60936;BMP280;46804;51.786;19.520;2022-07-23T21:00:10;98476.75;;;21.40
60936;BMP280;46804;51.786;19.520;2022-07-23T21:04:11;98475.97;;;21.39
60936;BMP280;46804;51.786;19.520;2022-07-23T21:08:11;98486.59;;;21.44
60936;BMP280;46804;51.786;19.520;2022-07-23T21:12:12;98491.56;;;21.25
60936;BMP280;46804;51.786;19.520;2022-07-23T21:16:13;98488.09;;;21.16
60936;BMP280;46804;51.786;19.520;2022-07-23T21:20:14;98490.44;;;21.26
60936;BMP280;46804;51.786;19.520;2022-07-23T21:24:15;98495.69;;;21.31
60936;BMP280;46804;51.786;19.520;2022-07-23T21:28:16;98506.69;;;21.18
60936;BMP280;46804;51.786;19.520;2022-07-23T21:32:17;98511.00;;;21.11
60936;BMP280;46804;51.786;19.520;2022-07-23T21:36:17;98514.66;;;21.06
60936;BMP280;46804;51.786;19.520;2022-07-23T21:40:18;98518.63;;;21.17
60936;BMP280;46804;51.786;19.520;2022-07-23T21:44:19;98522.00;;;21.06
60936;BMP280;46804;51.786;19.520;2022-07-23T21:48:19;98521.16;;;21.05
60936;BMP280;46804;51.786;19.520;2022-07-23T21:52:22;98521.16;;;21.05
60936;BMP280;46804;51.786;19.520;2022-07-23T21:56:27;98524.69;;;20.97
60936;BMP280;46804;51.786;19.520;2022-07-23T22:00:31;98520.22;;;20.84
60936;BMP280;46804;51.786;19.520;2022-07-23T22:04:33;98518.47;;;20.88
60936;BMP280;46804;51.786;19.520;2022-07-23T22:08:34;98523.09;;;20.96
60936;BMP280;46804;51.786;19.520;2022-07-23T22:12:34;98517.69;;;21.05
60936;BMP280;46804;51.786;19.520;2022-07-23T22:16:35;98509.88;;;21.11
60936;BMP280;46804;51.786;19.520;2022-07-23T22:20:36;98515.63;;;21.10
60936;BMP280;46804;51.786;19.520;2022-07-23T22:24:36;98523.69;;;21.18
60936;BMP280;46804;51.786;19.520;2022-07-23T22:28:37;98525.00;;;21.12
60936;BMP280;46804;51.786;19.520;2022-07-23T22:32:38;98518.63;;;21.09
60936;BMP280;46804;51.786;19.520;2022-07-23T22:36:39;98524.69;;;21.06
60936;BMP280;46804;51.786;19.520;2022-07-23T22:40:39;98525.13;;;21.16
60936;BMP280;46804;51.786;19.520;2022-07-23T22:44:40;98526.75;;;20.92
60936;BMP280;46804;51.786;19.520;2022-07-23T22:48:41;98514.16;;;20.87
60936;BMP280;46804;51.786;19.520;2022-07-23T22:52:41;98518.63;;;20.92
60936;BMP280;46804;51.786;19.520;2022-07-23T22:56:42;98517.34;;;20.98
60936;BMP280;46804;51.786;19.520;2022-07-23T23:00:43;98515.44;;;20.90
60936;BMP280;46804;51.786;19.520;2022-07-23T23:04:43;98511.63;;;20.91
60936;BMP280;46804;51.786;19.520;2022-07-23T23:08:44;98518.78;;;20.78